• Join FlightAware (Why Join?)
  • Login
  • US Flag 
01:09PM EDT


 

Airport Tracker/Info


-or-


 

Live Flight TrackerFlight Track Log ✈ CPZ5718 ✈ 26-Jun-2013 ✈ KALB - KMSP

Flight Track Log - Related Links

Times and Time Zones

All times are in EDT time to prevent confusion due to time zone crossing. See the CPZ5718 flight status page for this flight to view local times or setup timezone preferences in your user account.

Time Position Orientation Groundspeed Altitude Reporting Facility
EDT Latitude Longitude Course Direction KTS MPH feet Rate Location/Type
06:46AM 42.7756 -73.8064 281° West 169 194 1,400  Level Boston Center
06:47AM 42.8131 -73.8128 353° North 194 223 2,300 1,800 Climbing Boston Center
06:48AM 42.8825 -73.9219 311° West 253 291 5,900 2,460 Climbing Boston Center
06:49AM 42.8383 -74.3632 283° West  Level FlightAware Approximate
06:49AM 42.9314 -74.0139 306° West 264 304 9,100  Level Boston Center
06:50AM 42.8622 -74.5066 283° West  Level FlightAware Approximate
06:50AM 42.9761 -74.0944 307° West 282 325 10,700  Level Boston Center
06:51AM 42.8957 -74.6399 281° West  Level FlightAware Approximate
06:51AM 42.9992 -74.2286 283° West 313 360 13,100  Level Boston Center
06:52AM 43.0078 -74.3425 276° West 341 392 15,000 1,980 Climbing Boston Center
06:53AM 43.0219 -74.4847 278° West 347 399 17,100 1,980 Climbing Boston Center
06:54AM 43.0322 -74.6072 277° West 354 407 19,000 1,800 Climbing Boston Center
06:55AM 43.0442 -74.7442 277° West 360 414 20,700 1,620 Climbing Boston Center
06:56AM 43.0558 -74.8811 277° West 365 420 22,300 1,440 Climbing Boston Center
06:57AM 43.0672 -75.0236 276° West 375 432 23,600 1,260 Climbing Boston Center
06:58AM 43.0806 -75.1692 277° West 381 438 24,900 1,200 Climbing Boston Center
06:59AM 43.0931 -75.3319 276° West 386 444 26,100 1,200 Climbing Boston Center
07:00AM 43.1039 -75.4831 276° West 391 450 27,400 1,080 Climbing Boston Center
07:01AM 43.1164 -75.6344 277° West 391 450 28,300 840 Climbing Boston Center
07:02AM 43.1286 -75.7889 276° West 401 461 29,100 900 Climbing Boston Center
07:04AM 43.1522 -76.0864 276° West 400 460 31,200 900 Climbing Cleveland Center
07:05AM 43.1581 -76.2369 273° West 400 460 32,000 720 Climbing Cleveland Center
07:06AM 43.1450 -76.3914 263° West 405 466 32,700 600 Climbing Cleveland Center
07:07AM 43.1317 -76.5403 263° West 405 466 33,300 600 Climbing Cleveland Center
07:08AM 43.1183 -76.7033 264° West 405 466 34,000 300 Climbing Cleveland Center
07:09AM 43.1358 -76.8558 279° West 405 466 34,000  Level Cleveland Center
07:10AM 43.1636 -77.0108 284° West 410 472 34,000  Level Cleveland Center
07:11AM 43.1892 -77.1606 283° West 410 472 34,000  Level Cleveland Center
07:12AM 43.2164 -77.3100 284° West 410 472 34,000  Level Cleveland Center
07:13AM 43.2414 -77.4653 283° West 410 472 34,000  Level Cleveland Center
07:14AM 43.2683 -77.6153 284° West 410 472 34,000  Level Cleveland Center
07:15AM 43.2928 -77.7653 283° West 410 472 34,000  Level Cleveland Center
07:16AM 43.3217 -77.9181 285° West 410 472 34,000  Level Cleveland Center
07:17AM 43.3458 -78.0711 282° West 410 472 34,000  Level Cleveland Center
07:18AM 43.3719 -78.2242 283° West 410 472 34,000  Level Cleveland Center
07:19AM 43.3958 -78.3747 282° West 410 472 34,000  Level Cleveland Center
07:20AM 43.4192 -78.5225 282° West 410 472 34,000  Level Cleveland Center
07:21AM 43.4447 -78.6706 283° West 410 472 34,000  Level Cleveland Center
07:23AM 43.4976 -78.8446 282° West  Level FlightAware Approximate
07:30AM 43.6487 -79.8812 282° West  Level FlightAware Approximate
07:31AM 43.6695 -80.0297 281° West  Level FlightAware Approximate
07:32AM 43.6901 -80.1783 281° West  Level FlightAware Approximate
07:33AM 43.7114 -80.3268 282° West  Level FlightAware Approximate
07:34AM 43.7332 -80.4752 282° West  Level FlightAware Approximate
07:35AM 43.7548 -80.6236 281° West  Level FlightAware Approximate
07:36AM 43.7763 -80.7722 281° West  Level FlightAware Approximate
07:37AM 43.7975 -80.9209 281° West  Level FlightAware Approximate
07:38AM 43.8186 -81.0697 281° West  Level FlightAware Approximate
07:39AM 43.8394 -81.2187 281° West  Level FlightAware Approximate
07:40AM 43.8601 -81.3677 281° West  Level FlightAware Approximate
07:40AM 43.8656 -81.4953 280° West 407 468 34,000  Level Minneapolis Center
07:41AM 43.8806 -81.5168 281° West  Level FlightAware Approximate
07:41AM 43.8736 -81.6250 275° West 413 475 34,000  Level Minneapolis Center
07:42AM 43.9009 -81.6660 281° West  Level FlightAware Approximate
07:42AM 43.8994 -81.8078 281° West 406 467 34,000  Level Minneapolis Center
07:43AM 43.9207 -81.8154 280° West  Level FlightAware Approximate
07:43AM 43.9194 -81.9603 280° West 404 465 34,000  Level Minneapolis Center
07:44AM 43.9396 -81.9651 280° West  Level FlightAware Approximate
07:44AM 43.9406 -82.1136 281° West 404 465 34,000  Level Minneapolis Center
07:45AM 43.9582 -82.1149 280° West  Level FlightAware Approximate
07:45AM 43.9631 -82.3003 280° West 408 470 34,000  Level Minneapolis Center
07:46AM 43.9768 -82.2647 280° West  Level FlightAware Approximate
07:46AM 43.9831 -82.4553 280° West 409 471 34,000  Level Minneapolis Center
07:47AM 44.0025 -82.6111 280° West 410 472 34,000  Level Minneapolis Center
07:48AM 44.0214 -82.7672 280° West 411 473 34,000  Level Minneapolis Center
07:50AM 44.0408 -82.9231 280° West 411 473 34,000  Level Minneapolis Center
07:51AM 44.0633 -83.1117 279° West 413 475 34,000  Level Minneapolis Center
07:52AM 44.0817 -83.2708 279° West 416 479 34,000  Level Minneapolis Center
07:53AM 44.1011 -83.4289 280° West 416 479 34,000  Level Minneapolis Center
07:54AM 44.1203 -83.5900 279° West 420 483 34,000  Level Minneapolis Center
07:55AM 44.1381 -83.7486 279° West 417 480 34,000  Level Minneapolis Center
07:56AM 44.1600 -83.9406 279° West 418 481 34,000  Level Minneapolis Center
07:57AM 44.1786 -84.0997 279° West 416 479 34,000  Level Minneapolis Center
07:58AM 44.1967 -84.2597 279° West 419 482 34,000 -420 Level Minneapolis Center
07:59AM 44.2169 -84.4525 278° West 420 483 33,100 -1,020 Descending Minneapolis Center
08:00AM 44.2339 -84.6139 278° West 421 484 32,000 -540 Descending Minneapolis Center
08:01AM 44.2517 -84.7797 279° West 429 494 32,000  Level Minneapolis Center
08:02AM 44.2694 -84.9481 278° West 435 501 32,000  Level Minneapolis Center
08:03AM 44.2850 -85.0825 279° West 437 503 32,000  Level Minneapolis Center
08:04AM 44.3942 -85.2081 321° Northwest 435 501 32,000  Level Minneapolis Center
08:05AM 44.5106 -85.3139 327° Northwest 419 482 32,000  Level Minneapolis Center
08:06AM 44.5442 -85.4367 291° West 426 490 32,000  Level Minneapolis Center
08:07AM 44.5606 -85.6381 277° West 433 498 32,000  Level Minneapolis Center
08:08AM 44.5744 -85.8056 277° West 431 496 32,000  Level Minneapolis Center
08:09AM 44.5711 -85.9744 268° West 435 501 32,000  Level Minneapolis Center
08:10AM 44.4883 -86.1028 228° Southwest 451 519 32,000  Level Minneapolis Center
08:11AM 44.3794 -86.1961 212° Southwest 458 527 32,000  Level Minneapolis Center
08:12AM 44.3094 -86.3353 235° Southwest 445 512 32,000  Level Minneapolis Center
08:13AM 44.3147 -86.5044 273° West 436 502 32,000  Level Minneapolis Center
08:14AM 44.3381 -86.6672 281° West 429 494 32,000  Level Minneapolis Center
08:15AM 44.3614 -86.8294 281° West 427 491 32,000  Level Minneapolis Center
08:16AM 44.3881 -87.0289 281° West 432 497 32,000  Level Minneapolis Center
08:18AM 44.4108 -87.1950 281° West 436 502 32,000  Level Minneapolis Center
08:19AM 44.4333 -87.3611 281° West 435 501 32,000  Level Minneapolis Center
08:20AM 44.4553 -87.5292 280° West 439 505 32,000  Level Minneapolis Center
08:21AM 44.4775 -87.6983 280° West 440 506 32,000  Level Minneapolis Center
08:22AM 44.4989 -87.8683 280° West 444 511 32,000 -540 Level Minneapolis Center
08:23AM 44.5192 -88.0344 280° West 440 506 30,900 -1,020 Descending Minneapolis Center
08:24AM 44.5444 -88.2372 280° West 452 520 30,000 -480 Descending Minneapolis Center
08:25AM 44.5653 -88.4119 280° West 454 522 30,000  Level Minneapolis Center
08:26AM 44.5875 -88.5872 280° West 458 527 30,000  Level Minneapolis Center
08:27AM 44.6089 -88.7656 280° West 463 533 30,000  Level Minneapolis Center
08:28AM 44.6292 -88.9428 279° West 463 533 30,000  Level Minneapolis Center
08:29AM 44.6506 -89.1222 280° West 465 535 30,000  Level Minneapolis Center
08:30AM 44.6736 -89.3331 279° West 468 539 30,000  Level Minneapolis Center
08:31AM 44.6944 -89.5142 279° West 470 541 30,000  Level Minneapolis Center
08:32AM 44.7156 -89.6950 279° West 469 540 30,000  Level Minneapolis Center
08:33AM 44.7344 -89.8789 278° West 475 547 30,000  Level Minneapolis Center
08:34AM 44.7553 -90.0611 279° West 475 547 30,000 -120 Level Minneapolis Center
08:35AM 44.7739 -90.2450 278° West 473 544 29,800 -540 Descending Minneapolis Center
08:36AM 44.7900 -90.3967 279° West 472 543 28,900 -1,500 Descending Minneapolis Center
08:37AM 44.8139 -90.6319 278° West 458 527 26,800 -1,860 Descending Minneapolis Center
08:38AM 44.8322 -90.8094 278° West 460 529 25,100 -1,620 Descending Minneapolis Center
08:39AM 44.8486 -90.9794 278° West 449 517 23,500 -1,560 Descending Minneapolis Center
08:40AM 44.8658 -91.1447 278° West 435 501 21,900 -1,500 Descending Minneapolis Center
08:41AM 44.8797 -91.3008 277° West 416 479 20,500 -1,440 Descending Minneapolis Center
08:42AM 44.8953 -91.4536 278° West 400 460 19,000 -1,560 Descending Minneapolis Center
08:43AM 44.9239 -91.6317 283° West 391 450 17,300 -1,500 Descending Minneapolis Center
08:44AM 44.9528 -91.7783 286° West 389 448 15,900 -1,440 Descending Minneapolis Center
08:45AM 44.9822 -91.9261 286° West 392 451 14,400 -1,380 Descending Minneapolis Center
08:46AM 45.0094 -92.0683 285° West 375 432 13,100 -1,260 Descending Minneapolis Center
08:47AM 45.0308 -92.1922 284° West 330 380 11,900 -1,020 Descending Minneapolis Center
08:48AM 45.0472 -92.3106 281° West 314 361 11,000 -480 Descending Minneapolis Center
08:49AM 45.0231 -92.4533 257° West 311 358 11,000  Level Minneapolis Center
08:50AM 45.0050 -92.5714 258° West 310 357 11,000  Level Minneapolis Center
08:51AM 44.9864 -92.6894 257° West 309 356 11,000  Level Minneapolis Center
08:52AM 44.9675 -92.8058 257° West 307 353 11,000 -540 Level Minneapolis Center
08:54AM 44.9489 -92.9192 257° West 298 343 9,900 -1,200 Descending Minneapolis Center
08:55AM 44.9272 -93.0492 257° West 287 330 8,600 -1,140 Descending Minneapolis Center
08:56AM 44.9611 -93.1469 296° West 282 325 7,600 -960 Descending Minneapolis Center
08:57AM 44.9989 -93.2283 303° West 251 289 6,700 -780 Descending Minneapolis Center
08:58AM 45.0342 -93.3044 303° West 235 270 6,000 -360 Descending Minneapolis Center
08:59AM 45.0692 -93.3808 303° West 233 268 6,000  Level Minneapolis Center
09:00AM 45.1053 -93.4578 304° West 235 270 6,000  Level Minneapolis Center
09:01AM 45.1492 -93.5517 304° West 239 275 6,000  Level Minneapolis Center
09:02AM 45.1811 -93.6328 299° West 237 273 6,000 -420 Level Minneapolis Center
09:03AM 45.2056 -93.7175 292° West 233 268 5,200 -540 Descending Minneapolis Center
09:04AM 45.1814 -93.7797 241° Southwest 230 265 5,000 -120 Descending Minneapolis Center
09:05AM 45.1261 -93.7483 158° South 225 259 5,000 -360 Level Minneapolis Center
09:06AM 45.0911 -93.6767 125° Southeast 185 213 4,200 -540 Descending Minneapolis Center
09:07AM 45.0597 -93.6086 123° Southeast 173 199 4,000 -120 Descending Minneapolis Center
09:08AM 45.0350 -93.5503 121° Southeast 173 199 4,000  Level Minneapolis Center
09:09AM 45.0103 -93.4922 121° Southeast 173 199 4,000  Level Minneapolis Center
09:10AM 44.9850 -93.4344 122° Southeast 173 199 4,000 -360 Level Minneapolis Center
09:11AM 44.9603 -93.3772 121° Southeast 171 197 3,300 -720 Descending Minneapolis Center